Time;durP1;ratioP1;P1;durP2;ratioP2;P2;SDS_P1;SDS_P2;PMS_P1;PMS_P2;Temp;Humidity;BMP_temperature;BMP_pressure;BME280_temperature;BME280_humidity;BME280_pressure;Samples;Min_cycle;Max_cycle;Signal;HPM_P1;HPM_P2
2022/05/27 00:00:53;;;;;;;16.38;10.52;;;;;;;19.74;77.18;100403.63;5090122;28;20024;-29
2022/05/27 00:03:22;;;;;;;16.52;10.68;;;;;;;19.57;78.22;100410.06;5088591;28;20052;-32
2022/05/27 00:05:51;;;;;;;25.92;11.23;;;;;;;19.40;78.19;100409.53;5088450;28;20058;-29
2022/05/27 00:08:17;;;;;;;14.70;9.90;;;;;;;19.18;79.65;100412.47;5088094;28;20044;-29
2022/05/27 00:10:42;;;;;;;16.00;10.15;;;;;;;18.94;80.23;100379.72;5088402;28;20051;-28
2022/05/27 00:13:08;;;;;;;16.02;10.02;;;;;;;18.98;80.50;100392.44;5089676;28;20101;-28
2022/05/27 00:15:34;;;;;;;16.58;10.00;;;;;;;19.32;79.33;100401.97;5089786;28;20035;-28
2022/05/27 00:18:00;;;;;;;15.25;10.30;;;;;;;19.47;77.73;100404.66;5089732;28;20466;-30
2022/05/27 00:20:26;;;;;;;14.40;9.93;;;;;;;19.35;78.34;100385.19;5089677;28;20028;-30
2022/05/27 00:22:51;;;;;;;15.13;11.05;;;;;;;19.00;79.83;100408.38;5089355;28;20032;-32
2022/05/27 00:25:19;;;;;;;16.65;10.65;;;;;;;18.82;81.55;100402.41;5088070;28;20036;-33
2022/05/27 00:27:44;;;;;;;19.17;10.13;;;;;;;18.93;81.95;100394.31;5089616;28;20031;-28
2022/05/27 00:30:10;;;;;;;15.43;10.20;;;;;;;18.84;81.43;100402.13;5087962;28;20297;-29
2022/05/27 00:32:40;;;;;;;14.90;11.05;;;;;;;18.98;80.81;100380.81;5089408;28;20575;-30
2022/05/27 00:35:07;;;;;;;20.95;11.05;;;;;;;19.42;78.07;100400.06;5089171;28;20040;-29
2022/05/27 00:37:33;;;;;;;15.97;10.93;;;;;;;19.39;78.01;100392.50;5089011;28;20511;-30
2022/05/27 00:39:58;;;;;;;24.27;11.18;;;;;;;19.41;78.03;100367.88;5092394;28;20063;-30
2022/05/27 00:42:24;;;;;;;17.02;10.48;;;;;;;19.45;77.82;100398.72;5109450;28;20475;-30
2022/05/27 00:44:49;;;;;;;20.15;12.30;;;;;;;19.34;78.95;100394.38;5109303;28;20023;-29
2022/05/27 00:47:22;;;;;;;18.27;12.18;;;;;;;19.06;79.21;100372.16;5109232;28;20031;-30
2022/05/27 00:49:55;;;;;;;18.02;10.95;;;;;;;19.20;78.63;100388.69;5090909;28;20062;-30
2022/05/27 00:52:24;;;;;;;17.08;10.50;;;;;;;18.97;78.45;100384.59;5109645;28;20066;-28
2022/05/27 00:54:50;;;;;;;13.13;9.57;;;;;;;18.39;79.49;100380.06;5091102;28;20031;-28
2022/05/27 00:57:22;;;;;;;15.48;10.40;;;;;;;18.14;80.49;100390.69;5108840;28;20031;-29
2022/05/27 01:00:12;;;;;;;14.13;10.02;;;;;;;18.32;79.34;100367.84;5091010;28;20031;-29
2022/05/27 01:02:39;;;;;;;15.55;9.95;;;;;;;18.46;78.27;100386.00;5090883;28;20032;-29
2022/05/27 01:05:07;;;;;;;16.83;10.18;;;;;;;18.31;78.98;100372.44;5108994;28;20036;-30
2022/05/27 01:07:32;;;;;;;18.65;12.05;;;;;;;18.62;80.19;100383.38;5109107;28;20035;-29
2022/05/27 01:10:01;;;;;;;16.50;11.18;;;;;;;18.61;79.39;100373.63;5073849;28;20028;-29
2022/05/27 01:12:38;;;;;;;15.80;11.45;;;;;;;18.72;80.16;100390.72;5108991;28;20069;-32
2022/05/27 01:15:11;;;;;;;24.98;12.82;;;;;;;18.77;79.63;100379.91;5108768;28;20031;-30
2022/05/27 01:18:06;;;;;;;17.38;11.93;;;;;;;18.58;80.55;100371.47;5090687;28;20081;-29
2022/05/27 01:20:50;;;;;;;57.00;15.35;;;;;;;18.76;80.34;100389.91;5108981;28;20027;-28
2022/05/27 01:23:43;;;;;;;18.00;12.40;;;;;;;18.76;80.03;100395.31;5090085;28;20024;-29
2022/05/27 01:27:06;;;;;;;17.40;13.40;;;;;;;18.74;80.02;100385.88;5108868;28;20407;-30
2022/05/27 01:30:08;;;;;;;17.90;11.95;;;;;;;18.28;82.78;100387.25;5005394;28;20120;-28
2022/05/27 01:32:47;;;;;;;19.77;12.60;;;;;;;17.96;85.54;100387.38;5005685;28;20545;-32
2022/05/27 01:35:26;;;;;;;17.30;11.85;;;;;;;18.06;85.51;100390.13;5073487;28;20036;-29
2022/05/27 01:37:59;;;;;;;18.30;12.35;;;;;;;18.60;82.61;100390.94;5108578;28;20380;-30
2022/05/27 01:40:55;;;;;;;23.05;12.38;;;;;;;18.77;81.87;100383.41;5108334;28;20051;-31
2022/05/27 01:43:36;;;;;;;20.42;13.02;;;;;;;18.36;83.81;100383.25;5108652;28;20027;-33
2022/05/27 01:46:16;;;;;;;20.23;12.57;;;;;;;18.48;82.33;100373.06;5108193;28;20028;-29
2022/05/27 01:49:06;;;;;;;22.52;12.75;;;;;;;18.70;81.56;100393.69;5108537;28;20031;-29
2022/05/27 01:51:52;;;;;;;20.75;12.30;;;;;;;18.70;80.19;100385.56;5108240;28;20082;-29
2022/05/27 01:54:24;;;;;;;19.63;12.18;;;;;;;18.41;80.71;100366.28;5089507;28;20038;-28
2022/05/27 01:57:00;;;;;;;18.95;12.20;;;;;;;17.96;83.33;100376.56;5108174;28;20597;-29
2022/05/27 01:59:33;;;;;;;16.92;11.65;;;;;;;17.38;86.71;100387.16;5108169;28;20103;-29
2022/05/27 02:02:08;;;;;;;16.52;10.38;;;;;;;17.23;90.46;100370.84;5089674;28;20035;-30
2022/05/27 02:04:41;;;;;;;17.75;11.07;;;;;;;17.56;87.29;100394.03;5107957;28;20031;-29
2022/05/27 02:07:15;;;;;;;18.73;10.95;;;;;;;17.73;86.04;100403.88;5107909;28;20036;-29
2022/05/27 02:09:45;;;;;;;17.25;12.20;;;;;;;17.86;84.64;100384.59;5107328;28;20092;-32
2022/05/27 02:12:29;;;;;;;19.85;12.43;;;;;;;17.95;84.34;100385.72;5089539;28;20031;-30
2022/05/27 02:15:12;;;;;;;16.42;12.10;;;;;;;17.56;86.84;100380.56;5089256;28;20583;-31
2022/05/27 02:17:50;;;;;;;19.40;13.73;;;;;;;17.85;85.99;100401.84;5107609;28;20046;-29
2022/05/27 02:20:31;;;;;;;20.00;13.40;;;;;;;18.22;83.27;100390.22;5107866;28;20032;-30
2022/05/27 02:23:26;;;;;;;17.25;13.25;;;;;;;18.16;83.91;100393.94;5089387;28;20039;-30
2022/05/27 02:25:55;;;;;;;22.98;14.00;;;;;;;18.31;83.18;100398.63;5098761;28;20035;-29
2022/05/27 02:28:36;;;;;;;22.63;15.07;;;;;;;18.27;83.93;100403.75;5107879;28;20511;-33
2022/05/27 02:31:10;;;;;;;22.25;16.10;;;;;;;18.04;84.85;100405.78;5107612;28;20476;-30
2022/05/27 02:36:32;;;;;;;20.88;15.40;;;;;;;17.82;86.02;100396.97;5107675;28;20101;-29
2022/05/27 02:38:58;;;;;;;24.38;16.15;;;;;;;17.46;87.54;100396.66;5107478;28;20035;-29
2022/05/27 02:41:26;;;;;;;21.33;15.40;;;;;;;17.31;87.89;100396.53;5106881;28;20124;-29
2022/05/27 02:44:21;;;;;;;24.20;16.88;;;;;;;17.24;90.31;100421.81;5089086;28;20495;-28
2022/05/27 02:46:57;;;;;;;23.15;14.75;;;;;;;17.50;87.42;100411.25;5107123;28;20039;-32
2022/05/27 02:49:27;;;;;;;20.30;14.65;;;;;;;17.63;87.38;100416.25;5088912;28;20216;-30
2022/05/27 02:52:07;;;;;;;21.38;14.30;;;;;;;17.72;88.32;100410.38;5107338;28;20038;-30
2022/05/27 02:55:16;;;;;;;21.23;14.95;;;;;;;17.63;88.21;100405.44;5089027;28;20028;-28
2022/05/27 02:57:54;;;;;;;23.67;14.88;;;;;;;17.62;87.06;100414.59;5062199;28;20038;-28
2022/05/27 03:00:28;;;;;;;29.05;15.15;;;;;;;17.63;87.18;100405.44;5107394;28;20035;-28
2022/05/27 03:02:54;;;;;;;21.13;13.25;;;;;;;17.55;87.28;100408.63;5107478;28;20043;-28
2022/05/27 03:05:25;;;;;;;18.40;12.20;;;;;;;17.60;88.47;100410.53;5106906;28;20122;-28
2022/05/27 03:08:02;;;;;;;17.85;12.60;;;;;;;17.44;86.94;100396.09;5107935;28;20107;-30
2022/05/27 03:11:05;;;;;;;19.50;12.82;;;;;;;17.81;87.33;100411.50;5106782;28;20492;-32
2022/05/27 03:13:33;;;;;;;17.70;11.88;;;;;;;17.94;83.35;100416.50;5106920;28;20062;-32
2022/05/27 03:16:34;;;;;;;17.45;12.35;;;;;;;17.90;84.48;100404.59;5106865;28;20038;-30
2022/05/27 03:19:24;;;;;;;19.90;11.20;;;;;;;18.11;83.61;100415.53;5050246;28;20035;-31
2022/05/27 03:22:00;;;;;;;16.63;12.07;;;;;;;18.04;83.75;100400.38;5110264;28;20407;-28
2022/05/27 03:24:42;;;;;;;19.92;13.60;;;;;;;18.06;83.82;100394.69;5092670;28;20396;-29
2022/05/27 03:27:46;;;;;;;18.30;12.68;;;;;;;18.30;83.09;100419.41;5092386;28;20039;-31
2022/05/27 03:30:40;;;;;;;21.65;12.52;;;;;;;17.96;83.20;100403.56;5062994;28;20048;-28
2022/05/27 03:33:14;;;;;;;19.98;12.30;;;;;;;17.96;84.71;100408.13;5092463;28;20023;-32
2022/05/27 03:35:47;;;;;;;22.23;12.55;;;;;;;17.78;85.33;100422.81;5110860;28;20108;-27
2022/05/27 03:38:38;;;;;;;16.80;11.52;;;;;;;17.84;84.71;100411.84;5110820;28;20032;-29
2022/05/27 03:41:19;;;;;;;16.33;12.90;;;;;;;18.17;82.52;100414.50;5110277;28;20059;-30
2022/05/27 03:43:46;;;;;;;20.83;12.73;;;;;;;18.32;80.67;100398.34;5092263;28;20399;-28
2022/05/27 03:46:11;;;;;;;21.02;12.30;;;;;;;18.21;81.00;100394.81;5091963;28;20119;-30
2022/05/27 03:48:37;;;;;;;20.58;12.82;;;;;;;18.58;79.87;100403.91;5110753;28;20502;-29
2022/05/27 03:51:28;;;;;;;17.63;12.45;;;;;;;18.48;81.11;100424.38;5091476;28;20532;-29
2022/05/27 03:54:05;;;;;;;28.25;14.18;;;;;;;18.53;81.23;100428.16;5110451;28;20031;-31
2022/05/27 03:56:37;;;;;;;34.53;13.32;;;;;;;18.61;79.61;100423.09;5076791;28;20020;-28
2022/05/27 03:59:05;;;;;;;26.55;14.20;;;;;;;18.57;79.82;100423.84;5109840;28;20493;-31
2022/05/27 04:01:32;;;;;;;30.85;13.48;;;;;;;18.63;79.46;100406.59;5110163;28;20695;-29
2022/05/27 04:04:00;;;;;;;18.92;12.82;;;;;;;18.85;78.89;100428.88;5110141;28;20043;-31
2022/05/27 04:06:27;;;;;;;20.40;12.27;;;;;;;18.37;82.74;100411.91;5091748;28;20028;-29
2022/05/27 04:08:53;;;;;;;22.07;12.60;;;;;;;18.51;82.25;100408.72;5091742;28;20118;-34
2022/05/27 04:11:19;;;;;;;18.58;12.10;;;;;;;18.36;83.48;100414.84;5109782;28;20301;-28
2022/05/27 04:13:45;;;;;;;19.30;12.02;;;;;;;18.60;82.26;100412.53;5091594;28;20024;-28
2022/05/27 04:16:11;;;;;;;21.38;13.13;;;;;;;18.99;80.85;100425.69;5091302;28;20042;-31
2022/05/27 04:18:36;;;;;;;19.63;12.25;;;;;;;19.13;79.41;100413.28;5091785;28;20031;-28
2022/05/27 04:21:02;;;;;;;20.40;12.80;;;;;;;19.23;79.99;100416.00;5109684;28;20042;-30
2022/05/27 04:23:28;;;;;;;18.98;13.55;;;;;;;19.38;79.90;100415.22;5091756;28;20028;-29
2022/05/27 04:25:53;;;;;;;21.88;14.05;;;;;;;19.63;79.46;100436.03;5109875;28;20107;-29
2022/05/27 04:28:19;;;;;;;20.90;14.40;;;;;;;20.05;77.66;100426.06;5109942;28;20031;-29
2022/05/27 04:30:45;;;;;;;20.65;15.15;;;;;;;20.37;76.44;100433.84;5109606;28;20030;-28
2022/05/27 04:33:11;;;;;;;22.75;14.90;;;;;;;20.34;76.52;100425.44;5090326;28;20032;-32
2022/05/27 04:35:37;;;;;;;21.85;15.27;;;;;;;20.50;75.90;100418.09;5091205;28;20184;-28
2022/05/27 04:38:03;;;;;;;23.27;14.95;;;;;;;20.51;75.62;100406.97;5090894;28;20038;-31
2022/05/27 04:40:29;;;;;;;21.95;15.32;;;;;;;20.59;75.36;100409.13;5091010;28;20067;-29
2022/05/27 04:42:55;;;;;;;23.90;15.05;;;;;;;20.92;74.87;100417.66;5109387;28;20587;-32
2022/05/27 04:45:20;;;;;;;18.60;15.13;;;;;;;21.13;73.65;100423.78;5109081;28;20036;-32
2022/05/27 04:47:46;;;;;;;20.27;14.27;;;;;;;21.32;72.32;100415.78;5109673;28;20032;-29
2022/05/27 04:50:12;;;;;;;20.90;14.98;;;;;;;21.22;73.17;100415.84;5109395;28;20024;-29
2022/05/27 04:52:39;;;;;;;21.77;14.50;;;;;;;21.33;72.78;100422.84;5090910;28;20027;-32
2022/05/27 04:55:08;;;;;;;19.25;14.70;;;;;;;21.37;72.20;100423.91;5090747;28;20043;-32
2022/05/27 04:57:36;;;;;;;22.35;14.23;;;;;;;21.61;71.27;100423.19;5109323;28;20153;-30
2022/05/27 05:00:07;;;;;;;21.55;14.65;;;;;;;21.83;70.55;100414.59;5109273;28;20027;-29
2022/05/27 05:02:32;;;;;;;19.75;13.48;;;;;;;21.77;69.94;100419.25;5109704;28;20475;-29
2022/05/27 05:04:58;;;;;;;20.25;14.45;;;;;;;21.90;69.52;100415.06;5108982;28;20038;-29
2022/05/27 05:07:25;;;;;;;21.67;12.90;;;;;;;21.90;69.10;100420.50;5108930;28;20046;-29
2022/05/27 05:09:51;;;;;;;21.10;13.53;;;;;;;21.93;69.66;100403.66;5090483;28;20027;-35
2022/05/27 05:12:22;;;;;;;21.85;13.40;;;;;;;21.99;68.85;100405.22;5108732;28;20502;-30
2022/05/27 05:14:48;;;;;;;19.27;13.30;;;;;;;22.12;67.38;100422.72;5108638;28;20030;-29
2022/05/27 05:17:14;;;;;;;32.50;12.95;;;;;;;22.36;67.20;100427.41;5108835;28;20031;-32
2022/05/27 05:19:39;;;;;;;16.48;12.15;;;;;;;22.47;66.56;100423.47;5090316;28;20028;-29
2022/05/27 05:22:05;;;;;;;18.05;12.00;;;;;;;22.54;66.45;100423.13;5108788;28;20152;-29
2022/05/27 05:24:30;;;;;;;16.00;11.88;;;;;;;22.65;64.94;100430.06;5108688;28;20031;-31
2022/05/27 05:26:56;;;;;;;20.15;12.02;;;;;;;22.49;65.80;100418.56;5108471;28;20035;-31
2022/05/27 05:29:21;;;;;;;16.27;11.80;;;;;;;22.50;65.09;100408.50;5089774;28;20139;-30
2022/05/27 05:31:47;;;;;;;16.33;10.93;;;;;;;22.44;65.19;100430.31;5108667;28;20558;-29
2022/05/27 05:34:12;;;;;;;17.27;12.10;;;;;;;22.69;64.97;100431.09;5108599;28;20379;-29
2022/05/27 05:36:38;;;;;;;20.80;12.77;;;;;;;22.71;65.37;100428.91;5108386;28;20434;-29
2022/05/27 05:39:03;;;;;;;16.00;10.80;;;;;;;22.57;64.97;100417.13;5089915;28;20027;-30
2022/05/27 05:41:33;;;;;;;17.55;11.10;;;;;;;22.87;63.27;100432.22;5108511;28;20086;-33
2022/05/27 05:43:59;;;;;;;15.30;12.45;;;;;;;23.17;63.46;100428.31;5107589;28;20084;-29
2022/05/27 05:46:26;;;;;;;15.15;11.02;;;;;;;23.23;63.15;100420.88;5108560;28;20027;-30
2022/05/27 05:48:52;;;;;;;16.60;11.47;;;;;;;23.33;63.00;100428.06;5089942;28;20510;-29
2022/05/27 05:51:18;;;;;;;18.02;10.98;;;;;;;23.39;63.41;100427.69;5108262;28;20023;-31
2022/05/27 05:53:43;;;;;;;16.83;10.25;;;;;;;23.34;62.39;100426.97;5108171;28;20032;-29
2022/05/27 05:56:09;;;;;;;14.52;10.90;;;;;;;23.58;63.18;100430.41;5107934;28;20411;-29
2022/05/27 05:58:36;;;;;;;15.05;10.68;;;;;;;23.43;63.44;100397.97;5107876;28;20038;-30
2022/05/27 06:01:01;;;;;;;13.35;10.73;;;;;;;23.67;59.84;100434.06;5089426;28;20034;-29
2022/05/27 06:03:26;;;;;;;17.95;11.07;;;;;;;23.55;61.37;100430.19;5107902;28;20027;-32
2022/05/27 06:05:52;;;;;;;16.45;12.20;;;;;;;23.64;61.49;100429.22;5108036;28;20026;-29
2022/05/27 06:08:18;;;;;;;15.57;11.27;;;;;;;23.66;60.85;100415.31;5107751;28;20040;-30
2022/05/27 06:10:48;;;;;;;17.35;12.98;;;;;;;23.97;60.52;100431.16;5107814;28;20024;-29
2022/05/27 06:13:14;;;;;;;16.95;10.77;;;;;;;23.98;61.16;100430.84;5107947;28;20092;-30
2022/05/27 06:15:41;;;;;;;15.35;11.25;;;;;;;24.13;60.91;100431.66;5089349;28;20475;-32
2022/05/27 06:18:07;;;;;;;17.35;11.40;;;;;;;24.08;61.17;100426.31;5107635;28;20130;-29
2022/05/27 06:20:35;;;;;;;14.07;11.35;;;;;;;24.23;60.69;100402.31;5107601;28;20107;-29
2022/05/27 06:23:04;;;;;;;14.50;10.80;;;;;;;24.41;60.33;100421.59;5107322;28;20035;-32
2022/05/27 06:25:29;;;;;;;13.90;11.02;;;;;;;24.67;58.48;100424.66;5107473;28;20024;-31
2022/05/27 06:34:23;;;;;;;15.95;11.10;;;;;;;24.54;59.12;100422.72;5107796;28;20031;-29
2022/05/27 06:36:08;;;;;;;17.25;10.05;;;;;;;24.80;59.59;100421.06;5107821;28;20527;-30
2022/05/27 06:38:36;;;;;;;16.30;10.23;;;;;;;25.19;58.42;100392.41;5107378;28;20588;-30
2022/05/27 06:41:03;;;;;;;15.50;10.48;;;;;;;25.40;58.10;100416.53;5085101;28;20139;-28
2022/05/27 06:43:28;;;;;;;13.68;9.40;;;;;;;25.42;56.12;100412.34;5085753;28;20032;-31
2022/05/27 06:45:54;;;;;;;15.55;9.50;;;;;;;25.24;55.71;100397.75;5085419;28;20520;-30
2022/05/27 06:48:19;;;;;;;12.48;9.63;;;;;;;25.35;56.51;100397.50;5086862;28;20584;-28
2022/05/27 06:50:45;;;;;;;14.52;10.13;;;;;;;25.66;55.41;100392.09;5086950;28;20035;-29
2022/05/27 06:53:10;;;;;;;14.30;9.45;;;;;;;25.91;54.48;100396.13;5086962;28;20031;-29
2022/05/27 06:55:36;;;;;;;15.05;9.68;;;;;;;26.15;53.83;100381.28;5088432;28;20581;-28
2022/05/27 06:58:03;;;;;;;13.85;9.48;;;;;;;26.16;53.58;100411.03;5091277;28;20020;-32
2022/05/27 07:00:28;;;;;;;15.73;8.73;;;;;;;26.03;53.20;100390.06;5091140;28;20043;-31
2022/05/27 07:02:54;;;;;;;13.68;8.85;;;;;;;26.15;53.37;100387.53;5090670;28;20024;-33
2022/05/27 07:05:19;;;;;;;13.38;9.20;;;;;;;26.24;53.63;100373.91;5091053;28;20031;-31
2022/05/27 07:07:45;;;;;;;11.93;9.77;;;;;;;26.61;52.05;100393.66;5090815;28;20055;-30
2022/05/27 07:10:11;;;;;;;15.40;8.63;;;;;;;26.67;52.25;100397.88;5091074;28;20487;-33
2022/05/27 07:12:37;;;;;;;13.73;8.90;;;;;;;26.76;50.80;100403.34;5089256;28;20122;-31
2022/05/27 07:15:03;;;;;;;14.13;8.95;;;;;;;27.01;50.29;100379.84;5090845;28;20040;-32
2022/05/27 07:17:28;;;;;;;10.80;8.63;;;;;;;27.13;51.10;100396.44;5090659;28;20039;-32
2022/05/27 07:19:54;;;;;;;13.88;9.00;;;;;;;26.89;50.12;100387.91;5091270;28;20032;-29
2022/05/27 07:22:19;;;;;;;10.52;8.05;;;;;;;26.85;50.29;100388.56;5090925;28;20028;-29
2022/05/27 07:24:45;;;;;;;12.75;9.05;;;;;;;26.86;50.76;100384.69;5090739;28;20024;-29
2022/05/27 07:27:10;;;;;;;12.82;7.80;;;;;;;26.77;49.66;100370.19;5090533;28;20020;-34
2022/05/27 07:29:36;;;;;;;14.02;8.05;;;;;;;26.99;50.70;100382.09;5090530;28;20077;-29
2022/05/27 07:32:02;;;;;;;13.75;8.10;;;;;;;27.04;49.35;100373.75;5090358;28;20483;-30
2022/05/27 07:34:28;;;;;;;14.35;8.25;;;;;;;27.30;48.30;100365.56;5089148;28;20093;-31
2022/05/27 07:36:53;;;;;;;21.70;7.85;;;;;;;27.09;48.75;100365.38;5090333;28;20035;-31
2022/05/27 07:39:19;;;;;;;12.02;7.57;;;;;;;27.45;47.89;100383.41;5090161;28;20040;-29
2022/05/27 07:41:44;;;;;;;11.95;7.15;;;;;;;27.34;49.31;100368.44;5108312;28;20048;-30
2022/05/27 07:44:10;;;;;;;10.68;7.50;;;;;;;27.73;47.16;100378.34;5110636;28;20027;-29
2022/05/27 07:46:37;;;;;;;11.18;7.30;;;;;;;28.05;46.12;100366.03;5110601;28;20092;-31
2022/05/27 07:49:04;;;;;;;10.75;7.28;;;;;;;27.82;44.82;100378.31;5110578;28;20038;-35
2022/05/27 07:51:30;;;;;;;10.32;6.85;;;;;;;27.69;45.62;100377.41;5091994;28;20103;-33
2022/05/27 07:53:55;;;;;;;12.10;8.00;;;;;;;27.57;47.80;100361.63;5110610;28;20036;-30
2022/05/27 07:56:21;;;;;;;14.50;8.63;;;;;;;27.70;46.91;100356.28;5092120;28;20114;-29
2022/05/27 07:58:47;;;;;;;10.52;6.40;;;;;;;27.99;45.65;100372.81;5110413;28;20019;-35
2022/05/27 08:01:13;;;;;;;12.00;7.17;;;;;;;28.52;45.57;100372.56;5109761;28;20120;-32
2022/05/27 08:03:41;;;;;;;10.95;6.20;;;;;;;28.17;44.00;100379.00;5091984;28;20038;-30
2022/05/27 08:06:07;;;;;;;9.27;6.07;;;;;;;28.51;43.36;100379.19;5091763;28;20485;-29
2022/05/27 08:08:33;;;;;;;10.25;6.70;;;;;;;28.57;43.02;100377.88;5090690;28;20471;-32
2022/05/27 08:10:59;;;;;;;11.13;6.00;;;;;;;29.00;43.97;100371.25;5091560;28;20085;-41
2022/05/27 08:13:26;;;;;;;9.48;6.05;;;;;;;29.11;43.32;100369.72;5110053;28;20042;-30
2022/05/27 08:15:52;;;;;;;9.85;5.40;;;;;;;29.18;42.38;100350.78;5109774;28;20024;-28
2022/05/27 08:18:21;;;;;;;9.13;5.50;;;;;;;29.48;41.61;100367.09;5091799;28;20506;-30
2022/05/27 08:20:47;;;;;;;9.73;5.72;;;;;;;29.56;41.03;100346.97;5091857;28;20483;-31
2022/05/27 08:23:12;;;;;;;9.38;5.60;;;;;;;29.24;41.89;100354.91;5110209;28;20055;-31
2022/05/27 08:25:38;;;;;;;9.77;5.78;;;;;;;29.23;42.87;100339.56;5110166;28;20107;-29
2022/05/27 08:28:05;;;;;;;7.50;5.07;;;;;;;29.78;40.80;100342.25;5109794;28;20031;-30
2022/05/27 08:30:35;;;;;;;8.38;5.00;;;;;;;30.05;39.24;100352.56;5090866;28;20019;-32
2022/05/27 08:33:00;;;;;;;9.82;5.28;;;;;;;29.83;38.64;100342.81;5091188;28;20074;-29
2022/05/27 08:38:18;;;;;;;8.35;5.30;;;;;;;29.88;37.91;100347.28;5109941;28;20049;-29
2022/05/27 08:41:14;;;;;;;9.32;5.32;;;;;;;30.01;37.42;100348.88;5109425;28;20523;-32
2022/05/27 08:44:11;;;;;;;7.35;5.07;;;;;;;30.03;37.56;100341.09;5092274;28;20571;-29
2022/05/27 08:46:36;;;;;;;;;;;;;;;30.44;35.61;100335.72;5091495;28;20058;-29
2022/05/27 08:49:09;;;;;;;7.60;4.00;;;;;;;30.82;36.48;100335.25;5109058;28;20411;-29
2022/05/27 08:51:45;;;;;;;9.20;4.28;;;;;;;30.99;36.48;100312.16;5090862;28;20350;-30
2022/05/27 08:54:20;;;;;;;9.13;4.45;;;;;;;31.24;35.39;100334.91;5109309;28;20114;-33
2022/05/27 08:59:50;;;;;;;8.50;4.25;;;;;;;31.51;35.99;100326.97;5109507;28;20406;-29
2022/05/27 09:02:36;;;;;;;7.05;4.05;;;;;;;31.30;35.72;100320.84;5109289;28;20038;-29
2022/05/27 09:05:07;;;;;;;6.38;3.50;;;;;;;30.78;33.16;100331.59;5090662;28;20024;-31
2022/05/27 09:07:48;;;;;;;7.63;4.18;;;;;;;31.27;33.95;100321.56;5090503;28;20392;-31
2022/05/27 09:10:45;;;;;;;7.15;3.78;;;;;;;31.51;33.93;100324.22;5108967;28;20024;-30
2022/05/27 09:13:16;;;;;;;7.25;3.70;;;;;;;31.60;32.75;100327.59;5064972;28;20121;-29
2022/05/27 09:15:51;;;;;;;6.05;3.95;;;;;;;31.16;32.98;100316.56;5109291;28;20793;-30
2022/05/27 09:18:32;;;;;;;10.60;3.90;;;;;;;31.40;34.89;100314.81;5108449;28;20114;-31
2022/05/27 09:21:25;;;;;;;9.43;3.95;;;;;;;31.14;33.87;100301.53;5090569;28;20110;-29
2022/05/27 09:24:30;;;;;;;7.22;4.20;;;;;;;31.67;35.06;100306.84;5108915;28;20027;-32
2022/05/27 09:27:06;;;;;;;6.70;3.97;;;;;;;31.35;34.54;100293.06;5090575;28;20027;-31
2022/05/27 09:29:47;;;;;;;8.30;4.03;;;;;;;31.66;34.90;100300.56;5090557;28;20464;-30
2022/05/27 09:32:25;;;;;;;5.50;3.35;;;;;;;31.58;32.48;100296.81;5108559;28;20085;-29
2022/05/27 09:34:53;;;;;;;6.60;3.80;;;;;;;31.88;33.24;100290.84;5090117;28;20097;-29
2022/05/27 09:37:39;;;;;;;7.85;3.70;;;;;;;32.09;32.25;100292.53;5107919;28;20604;-29
2022/05/27 09:40:22;;;;;;;5.65;3.90;;;;;;;31.68;33.22;100281.69;5089892;28;20058;-31
2022/05/27 09:43:42;;;;;;;9.23;3.92;;;;;;;31.29;33.75;100280.69;5108597;28;20403;-30
2022/05/27 09:46:19;;;;;;;8.75;3.70;;;;;;;31.95;32.90;100279.97;5005139;28;20077;-29
2022/05/27 09:48:44;;;;;;;5.85;3.97;;;;;;;32.41;33.92;100258.16;5089487;28;20066;-29
2022/05/27 09:51:12;;;;;;;7.47;3.90;;;;;;;32.59;33.08;100266.03;5089466;28;20031;-31
2022/05/27 09:53:48;;;;;;;7.50;3.65;;;;;;;32.69;31.12;100268.19;5090167;28;20042;-30
2022/05/27 09:56:15;;;;;;;10.07;3.28;;;;;;;32.67;31.71;100265.00;5108109;28;20453;-30
2022/05/27 09:58:44;;;;;;;8.82;3.60;;;;;;;32.92;31.08;100264.72;5089739;28;20031;-32
2022/05/27 10:01:28;;;;;;;8.38;3.80;;;;;;;32.98;31.02;100261.28;5107923;28;20032;-29
2022/05/27 10:04:03;;;;;;;7.20;3.40;;;;;;;33.17;29.51;100243.09;5089671;28;20024;-29
2022/05/27 10:06:32;;;;;;;8.60;3.83;;;;;;;33.50;29.51;100245.22;5089517;28;20039;-29
2022/05/27 10:09:00;;;;;;;5.90;3.15;;;;;;;33.45;28.45;100248.31;5108165;28;20055;-29
2022/05/27 10:11:47;;;;;;;6.00;3.30;;;;;;;33.75;28.79;100250.38;5089553;28;20023;-31
2022/05/27 10:14:19;;;;;;;6.90;3.65;;;;;;;33.46;30.31;100247.13;5108005;28;20502;-30
2022/05/27 10:17:09;;;;;;;7.90;3.75;;;;;;;33.48;30.49;100219.91;5107721;28;20035;-31
2022/05/27 10:19:36;;;;;;;6.60;3.40;;;;;;;33.67;29.06;100226.53;5107582;28;20733;-34
2022/05/27 10:22:08;;;;;;;7.47;3.13;;;;;;;33.68;27.94;100233.69;5089112;28;20035;-30
2022/05/27 10:24:44;;;;;;;6.80;3.15;;;;;;;33.81;29.48;100222.00;5089324;28;20115;-29
2022/05/27 10:27:21;;;;;;;9.20;4.20;;;;;;;33.89;28.47;100222.13;5088811;28;20039;-29
2022/05/27 10:29:58;;;;;;;7.32;3.40;;;;;;;32.94;29.51;100226.47;5107209;28;20027;-32
2022/05/27 10:32:37;;;;;;;11.50;3.63;;;;;;;32.83;28.75;100212.44;5107778;28;20032;-31
2022/05/27 10:35:29;;;;;;;7.07;3.50;;;;;;;33.35;28.09;100211.03;5089048;28;20093;-31
2022/05/27 10:38:19;;;;;;;5.68;3.33;;;;;;;33.86;29.70;100209.84;5107520;28;20050;-30
2022/05/27 10:41:16;;;;;;;10.40;3.28;;;;;;;34.26;28.22;100208.41;5107532;28;20123;-29
2022/05/27 10:44:00;;;;;;;6.28;3.03;;;;;;;33.33;28.76;100196.00;5107552;28;20793;-30
2022/05/27 10:46:38;;;;;;;8.98;3.50;;;;;;;33.86;28.29;100201.56;5107416;28;20118;-29
2022/05/27 10:49:13;;;;;;;5.57;2.97;;;;;;;33.71;27.94;100194.22;5088956;28;20039;-32
2022/05/27 10:51:50;;;;;;;7.72;2.78;;;;;;;34.30;27.92;100192.66;5088856;28;20051;-33
2022/05/27 10:54:25;;;;;;;5.43;2.80;;;;;;;34.94;27.38;100189.81;5088652;28;20031;-32
2022/05/27 11:03:03;;;;;;;6.28;3.08;;;;;;;35.26;25.75;100180.97;5106835;28;20510;-33
2022/05/27 11:05:40;;;;;;;5.10;2.67;;;;;;;35.03;26.60;100181.16;5107388;28;20035;-32
2022/05/27 11:08:15;;;;;;;6.95;3.05;;;;;;;34.92;25.48;100164.47;5107518;28;20023;-29
2022/05/27 11:10:59;;;;;;;8.15;2.85;;;;;;;35.43;25.20;100185.06;5107080;28;20486;-34
2022/05/27 11:17:01;;;;;;;6.18;2.60;;;;;;;35.38;24.50;100194.53;5107110;28;20058;-34
2022/05/27 11:20:01;;;;;;;5.72;2.83;;;;;;;35.70;23.70;100171.81;5107727;28;20035;-34
2022/05/27 11:22:35;;;;;;;6.13;2.63;;;;;;;35.66;26.04;100178.53;5088805;28;20526;-32
2022/05/27 11:25:09;;;;;;;6.85;3.00;;;;;;;35.28;25.42;100155.66;5088562;28;20028;-29
2022/05/27 11:27:56;;;;;;;8.20;3.42;;;;;;;34.59;27.18;100179.13;5088685;28;20111;-30
2022/05/27 11:30:38;;;;;;;;;;;;;;;34.76;25.83;100175.78;5107670;28;20027;-31
2022/05/27 11:33:22;;;;;;;5.35;2.67;;;;;;;35.09;25.31;100176.88;5106984;28;19916;-31
2022/05/27 11:36:12;;;;;;;4.93;2.40;;;;;;;35.71;24.14;100178.16;5106881;28;20779;-31
2022/05/27 11:39:01;;;;;;;8.02;3.45;;;;;;;35.50;25.06;100156.59;5088851;28;20072;-32
2022/05/27 11:42:04;;;;;;;7.15;3.00;;;;;;;35.29;27.09;100165.56;5089310;28;20051;-30
2022/05/27 11:44:32;;;;;;;5.32;3.00;;;;;;;35.27;28.02;100154.88;5111140;28;20043;-34
2022/05/27 11:46:58;;;;;;;7.07;3.00;;;;;;;35.12;28.57;100148.38;5092453;28;20023;-33
2022/05/27 11:49:52;;;;;;;7.93;3.35;;;;;;;35.10;26.75;100136.88;5092464;28;20035;-31
2022/05/27 11:52:35;;;;;;;6.88;2.92;;;;;;;35.52;26.94;100151.47;5092247;28;20039;-34
2022/05/27 11:55:19;;;;;;;6.82;3.25;;;;;;;35.36;27.20;100148.97;5110744;28;20028;-29
2022/05/27 11:58:24;;;;;;;5.57;2.70;;;;;;;34.57;28.67;100129.69;5110918;28;20092;-30
2022/05/27 12:01:22;;;;;;;6.93;3.40;;;;;;;35.19;27.37;100137.38;5092232;28;20498;-31
2022/05/27 12:04:05;;;;;;;7.03;2.88;;;;;;;34.81;28.00;100128.31;5092325;28;20077;-30
2022/05/27 12:07:12;;;;;;;5.80;3.22;;;;;;;33.99;29.26;100133.75;5092579;28;20043;-29